createdAt,value
2023-04-23T00:01:05.684Z,12.20
2023-04-23T00:03:36.358Z,12.85
2023-04-23T00:06:08.094Z,11.82
2023-04-23T00:08:35.134Z,11.35
2023-04-23T00:11:01.861Z,16.15
2023-04-23T00:13:28.743Z,13.82
2023-04-23T00:15:55.699Z,12.88
2023-04-23T00:18:22.337Z,12.07
2023-04-23T00:20:49.090Z,12.27
2023-04-23T00:23:15.819Z,13.68
2023-04-23T00:25:42.438Z,12.48
2023-04-23T00:28:09.091Z,13.07
2023-04-23T00:30:35.732Z,12.32
2023-04-23T00:33:02.463Z,11.57
2023-04-23T00:35:29.158Z,13.88
2023-04-23T00:37:55.882Z,14.07
2023-04-23T00:40:23.685Z,13.88
2023-04-23T00:42:52.281Z,13.98
2023-04-23T00:45:19.021Z,13.75
2023-04-23T00:47:46.326Z,12.05
2023-04-23T00:50:13.384Z,15.93
2023-04-23T00:52:40.813Z,12.85
2023-04-23T00:55:08.588Z,9.82
2023-04-23T00:57:36.576Z,10.45
2023-04-23T01:00:05.880Z,10.40
2023-04-23T01:02:32.727Z,10.13
2023-04-23T01:05:00.549Z,9.73
2023-04-23T01:07:27.578Z,9.95
2023-04-23T01:09:54.202Z,12.18
2023-04-23T01:12:20.943Z,11.98
2023-04-23T01:14:47.592Z,12.88
2023-04-23T01:17:14.492Z,12.50
2023-04-23T01:19:41.220Z,12.20
2023-04-23T01:22:14.314Z,11.90
2023-04-23T01:24:42.836Z,12.00
2023-04-23T01:29:36.667Z,11.25
2023-04-23T01:32:03.440Z,10.73
2023-04-23T01:34:33.682Z,10.00
2023-04-23T01:37:00.431Z,10.13
2023-04-23T01:39:27.119Z,10.50
2023-04-23T01:41:53.851Z,11.25
2023-04-23T01:44:20.631Z,10.82
2023-04-23T01:46:47.345Z,10.93
2023-04-23T01:49:14.034Z,10.85
2023-04-23T01:51:40.676Z,11.05
2023-04-23T01:54:07.415Z,11.45
2023-04-23T01:56:35.749Z,11.60
2023-04-23T01:59:02.625Z,10.73
2023-04-23T02:01:47.679Z,11.57
2023-04-23T02:04:14.957Z,11.73
2023-04-23T02:06:42.397Z,11.63
2023-04-23T02:09:09.100Z,11.60
2023-04-23T02:11:35.777Z,12.55
2023-04-23T02:14:02.561Z,11.07
2023-04-23T02:16:29.321Z,11.50
2023-04-23T02:18:56.092Z,10.75
2023-04-23T02:21:24.434Z,12.32
2023-04-23T02:23:51.282Z,12.63
2023-04-23T02:26:18.921Z,11.88
2023-04-23T02:28:46.317Z,11.43
2023-04-23T02:31:13.093Z,11.10
2023-04-23T02:33:41.388Z,11.85
2023-04-23T02:36:08.220Z,11.88
2023-04-23T02:38:34.917Z,12.45
2023-04-23T02:41:01.584Z,11.60
2023-04-23T02:43:28.236Z,12.80
2023-04-23T02:45:54.988Z,12.13
2023-04-23T02:48:22.413Z,13.27
2023-04-23T02:50:49.188Z,11.95
2023-04-23T02:53:16.411Z,12.40
2023-04-23T02:55:43.092Z,12.20
2023-04-23T02:58:10.320Z,11.32
2023-04-23T03:00:37.030Z,10.73
2023-04-23T03:03:03.843Z,11.13
2023-04-23T03:05:30.764Z,11.27
2023-04-23T03:07:57.474Z,11.98
2023-04-23T03:10:24.181Z,11.80
2023-04-23T03:12:50.944Z,12.40
2023-04-23T03:15:18.174Z,20.92
2023-04-23T03:17:44.898Z,18.55
2023-04-23T03:20:11.833Z,20.15
2023-04-23T03:22:38.575Z,15.00
2023-04-23T03:25:05.576Z,13.50
2023-04-23T03:27:32.421Z,11.95
2023-04-23T03:29:59.151Z,12.95
2023-04-23T03:32:25.764Z,11.68
2023-04-23T03:34:52.454Z,11.50
2023-04-23T03:37:19.071Z,11.10
2023-04-23T03:39:45.758Z,11.20
2023-04-23T03:42:12.424Z,13.05
2023-04-23T03:44:39.219Z,13.40
2023-04-23T03:47:05.951Z,11.73
2023-04-23T03:49:32.779Z,10.52
2023-04-23T03:51:59.488Z,13.82
2023-04-23T03:54:28.192Z,15.40
2023-04-23T03:56:54.809Z,12.43
2023-04-23T03:59:22.878Z,14.90
2023-04-23T04:01:49.501Z,13.15
2023-04-23T04:04:16.294Z,13.77
2023-04-23T04:06:43.408Z,14.48
2023-04-23T04:15:48.403Z,10.35
2023-04-23T04:18:15.182Z,10.55
2023-04-23T04:20:44.307Z,12.30
2023-04-23T04:23:11.053Z,9.27
2023-04-23T04:25:40.185Z,8.88
2023-04-23T04:28:12.016Z,9.85
2023-04-23T04:30:39.518Z,17.88
2023-04-23T04:33:06.194Z,12.68
2023-04-23T04:35:32.923Z,12.10
2023-04-23T04:38:00.061Z,9.98
2023-04-23T04:40:27.208Z,9.95
2023-04-23T04:42:55.181Z,9.95
2023-04-23T04:45:21.873Z,12.45
2023-04-23T04:47:48.569Z,13.48
2023-04-23T04:50:15.295Z,7.15
2023-04-23T04:52:41.977Z,7.75
2023-04-23T04:55:09.149Z,9.90
2023-04-23T04:57:36.639Z,10.90
2023-04-23T05:00:05.136Z,10.25
2023-04-23T05:02:31.912Z,10.27
2023-04-23T05:04:58.656Z,10.90
2023-04-23T05:07:25.292Z,10.52
2023-04-23T05:09:51.964Z,11.60
2023-04-23T05:12:18.620Z,11.00
2023-04-23T05:14:45.280Z,10.40
2023-04-23T05:17:11.946Z,11.93
2023-04-23T05:19:38.606Z,17.13
2023-04-23T05:22:05.288Z,18.60
2023-04-23T05:24:32.403Z,19.95
2023-04-23T05:26:59.047Z,15.27
2023-04-23T05:29:25.772Z,11.80
2023-04-23T05:31:52.449Z,10.27
2023-04-23T05:34:19.135Z,13.20
2023-04-23T05:36:45.838Z,10.35
2023-04-23T05:39:12.495Z,8.43
2023-04-23T05:41:39.182Z,8.18
2023-04-23T05:44:05.880Z,7.72
2023-04-23T05:46:32.569Z,9.75
2023-04-23T05:48:59.417Z,12.02
2023-04-23T05:51:26.131Z,9.90
2023-04-23T05:53:52.878Z,7.32
2023-04-23T05:56:19.593Z,8.20
2023-04-23T05:58:46.443Z,6.65
2023-04-23T06:01:13.088Z,8.88
2023-04-23T06:03:42.199Z,8.25
2023-04-23T06:06:09.057Z,8.60
2023-04-23T06:08:35.959Z,9.82
2023-04-23T06:11:02.614Z,11.15
2023-04-23T06:13:30.892Z,8.48
2023-04-23T06:15:58.162Z,6.55
2023-04-23T06:18:24.870Z,6.25
2023-04-23T06:20:51.677Z,6.10
2023-04-23T06:23:18.308Z,4.35
2023-04-23T06:25:44.975Z,4.28
2023-04-23T06:28:11.655Z,4.63
2023-04-23T06:30:38.267Z,4.95
2023-04-23T06:33:05.000Z,4.10
2023-04-23T06:35:31.723Z,4.60
2023-04-23T06:37:58.379Z,5.43
2023-04-23T06:40:25.019Z,4.80
2023-04-23T06:42:51.679Z,4.63
2023-04-23T06:45:18.323Z,4.65
2023-04-23T06:47:45.301Z,4.28
2023-04-23T06:50:12.079Z,5.22
2023-04-23T06:52:38.720Z,5.47
2023-04-23T06:55:05.798Z,5.10
2023-04-23T06:57:32.454Z,4.95
2023-04-23T06:59:59.062Z,4.45
2023-04-23T07:02:26.330Z,4.15
2023-04-23T07:04:53.067Z,4.05
2023-04-23T07:07:19.946Z,4.22
2023-04-23T07:09:46.658Z,4.18
2023-04-23T07:12:13.307Z,4.38
2023-04-23T07:14:40.159Z,4.20
2023-04-23T07:17:07.132Z,3.75
2023-04-23T07:19:33.810Z,3.30
2023-04-23T07:22:00.467Z,3.75
2023-04-23T07:24:27.311Z,4.13
2023-04-23T07:26:53.947Z,4.45
2023-04-23T07:29:20.673Z,4.10
2023-04-23T07:31:48.437Z,4.90
2023-04-23T07:34:15.128Z,5.60
2023-04-23T07:36:41.733Z,5.93
2023-04-23T07:39:08.392Z,6.63
2023-04-23T07:41:35.499Z,6.35
2023-04-23T07:44:02.178Z,6.95
2023-04-23T07:46:28.867Z,5.88
2023-04-23T07:48:55.729Z,6.20
2023-04-23T07:51:22.768Z,5.90
2023-04-23T07:53:51.289Z,5.60
2023-04-23T07:58:44.604Z,5.32
2023-04-23T08:01:11.274Z,5.63
2023-04-23T08:03:38.175Z,5.30
2023-04-23T08:06:05.263Z,5.35
2023-04-23T08:08:31.974Z,6.40
2023-04-23T08:10:58.855Z,5.60
2023-04-23T08:13:25.481Z,5.65
2023-04-23T08:15:52.352Z,5.80
2023-04-23T08:18:19.061Z,6.18
2023-04-23T08:20:45.673Z,5.38
2023-04-23T08:23:12.403Z,5.97
2023-04-23T08:25:39.047Z,5.00
2023-04-23T08:28:05.806Z,5.75
2023-04-23T08:30:32.555Z,6.18
2023-04-23T08:32:59.325Z,5.38
2023-04-23T08:35:26.005Z,4.35
2023-04-23T08:37:52.643Z,5.53
2023-04-23T08:40:19.383Z,5.88
2023-04-23T08:43:03.683Z,5.03
2023-04-23T08:45:30.773Z,6.40
2023-04-23T08:48:01.546Z,5.47
2023-04-23T08:50:29.346Z,5.47
2023-04-23T08:52:57.243Z,6.30
2023-04-23T08:55:24.041Z,8.48
2023-04-23T08:57:51.086Z,7.28
2023-04-23T09:00:18.914Z,7.35
2023-04-23T09:02:46.924Z,7.97
2023-04-23T09:05:13.946Z,6.47
2023-04-23T09:07:41.121Z,6.07
2023-04-23T09:10:08.627Z,6.50
2023-04-23T09:12:35.701Z,5.68
2023-04-23T09:15:03.284Z,6.47
2023-04-23T09:17:30.798Z,6.55
2023-04-23T09:19:57.758Z,4.82
2023-04-23T09:22:41.789Z,5.18
2023-04-23T09:25:10.294Z,4.60
2023-04-23T09:27:37.192Z,5.30
2023-04-23T09:30:09.756Z,4.82
2023-04-23T09:32:37.306Z,5.20
2023-04-23T09:35:07.937Z,5.50
2023-04-23T09:37:35.125Z,5.32
2023-04-23T09:40:04.403Z,5.63
2023-04-23T09:42:31.294Z,5.47
2023-04-23T09:45:01.117Z,4.50
2023-04-23T09:47:27.800Z,5.40
2023-04-23T09:49:54.529Z,5.10
2023-04-23T09:52:22.770Z,4.15
2023-04-23T09:54:49.558Z,5.10
2023-04-23T09:57:16.262Z,3.80
2023-04-23T09:59:48.827Z,5.18
2023-04-23T10:02:19.106Z,4.32
2023-04-23T10:04:46.024Z,4.22
2023-04-23T10:07:20.097Z,4.03
2023-04-23T10:09:47.656Z,3.80
2023-04-23T10:14:45.122Z,5.22
2023-04-23T10:17:12.099Z,4.97
2023-04-23T10:19:41.535Z,4.50
2023-04-23T10:22:18.379Z,4.75
2023-04-23T10:24:49.159Z,5.18
2023-04-23T10:27:28.526Z,4.35
2023-04-23T10:29:59.853Z,4.25
2023-04-23T10:32:26.592Z,4.60
2023-04-23T10:34:53.503Z,4.47
2023-04-23T10:37:20.166Z,3.65
2023-04-23T10:39:51.075Z,4.13
2023-04-23T10:42:17.746Z,4.20
2023-04-23T10:44:58.122Z,4.00
2023-04-23T10:47:29.621Z,4.35
2023-04-23T10:49:56.464Z,3.92
2023-04-23T10:52:25.812Z,5.72
2023-04-23T10:55:01.927Z,4.63
2023-04-23T10:57:28.733Z,4.20
2023-04-23T10:59:56.338Z,4.35
2023-04-23T11:02:26.696Z,4.75
2023-04-23T11:04:58.367Z,5.18
2023-04-23T11:07:32.255Z,6.15
2023-04-23T11:10:14.684Z,4.28
2023-04-23T11:12:41.459Z,5.18
2023-04-23T11:15:12.690Z,5.50
2023-04-23T11:17:39.326Z,6.03
2023-04-23T11:20:10.742Z,5.93
2023-04-23T11:22:38.380Z,5.22
2023-04-23T11:25:06.654Z,6.47
2023-04-23T11:27:33.372Z,7.35
2023-04-23T11:30:00.224Z,7.80
2023-04-23T11:32:27.981Z,7.32
2023-04-23T11:34:54.673Z,6.68
2023-04-23T11:37:21.415Z,6.38
2023-04-23T11:39:49.331Z,5.95
2023-04-23T11:42:16.521Z,5.72
2023-04-23T11:44:44.558Z,5.43
2023-04-23T11:47:12.625Z,5.25
2023-04-23T11:49:40.128Z,4.95
2023-04-23T11:52:07.150Z,5.50
2023-04-23T11:54:34.394Z,5.00
2023-04-23T11:57:01.600Z,4.85
2023-04-23T11:59:28.618Z,5.75
2023-04-23T12:01:57.550Z,5.43
2023-04-23T12:04:25.895Z,5.07
2023-04-23T12:09:23.583Z,3.72
2023-04-23T12:11:53.321Z,4.40
2023-04-23T12:14:24.085Z,4.57
2023-04-23T12:16:53.893Z,4.93
2023-04-23T12:19:30.888Z,5.20
2023-04-23T12:21:59.083Z,6.82
2023-04-23T12:24:30.884Z,5.40
2023-04-23T12:27:02.623Z,7.00
2023-04-23T12:29:30.326Z,6.03
2023-04-23T12:31:59.088Z,5.72
2023-04-23T12:34:25.869Z,3.83
2023-04-23T12:36:54.374Z,3.92
2023-04-23T12:41:52.204Z,3.67
2023-04-23T12:44:18.815Z,4.07
2023-04-23T12:46:45.513Z,4.43
2023-04-23T12:49:12.268Z,5.45
2023-04-23T12:51:38.973Z,5.82
2023-04-23T12:54:05.704Z,4.55
2023-04-23T12:56:32.485Z,6.20
2023-04-23T12:59:01.912Z,5.68
2023-04-23T13:01:28.800Z,6.75
2023-04-23T13:03:55.668Z,7.57
2023-04-23T13:06:22.487Z,9.82
2023-04-23T13:08:50.065Z,9.15
2023-04-23T13:11:16.867Z,7.00
2023-04-23T13:13:43.477Z,4.70
2023-04-23T13:16:10.127Z,5.95
2023-04-23T13:18:36.749Z,4.97
2023-04-23T13:21:03.403Z,4.95
2023-04-23T13:23:30.041Z,5.43
2023-04-23T13:25:56.728Z,5.03
2023-04-23T13:28:23.337Z,5.55
2023-04-23T13:30:49.986Z,4.82
2023-04-23T13:33:16.681Z,5.47
2023-04-23T13:35:43.318Z,5.15
2023-04-23T13:38:10.183Z,5.22
2023-04-23T13:40:38.020Z,4.78
2023-04-23T13:43:04.691Z,3.50
2023-04-23T13:45:31.388Z,4.22
2023-04-23T13:47:58.086Z,4.63
2023-04-23T13:50:24.859Z,14.27
2023-04-23T13:52:51.478Z,24.17
2023-04-23T13:55:18.302Z,11.05
2023-04-23T13:57:44.931Z,12.75
2023-04-23T14:00:12.788Z,12.70
2023-04-23T14:02:39.565Z,11.52
2023-04-23T14:05:06.850Z,10.07
2023-04-23T14:07:33.495Z,10.27
2023-04-23T14:10:00.196Z,10.85
2023-04-23T14:12:28.871Z,5.80
2023-04-23T14:14:55.852Z,7.75
2023-04-23T14:17:22.493Z,4.60
2023-04-23T14:19:49.177Z,4.18
2023-04-23T14:22:15.820Z,4.45
2023-04-23T14:24:46.698Z,3.72
2023-04-23T14:27:13.498Z,3.67
2023-04-23T14:29:41.099Z,5.00
2023-04-23T14:32:07.995Z,5.40
2023-04-23T14:34:37.896Z,4.30
2023-04-23T14:37:05.072Z,4.72
2023-04-23T14:39:33.518Z,6.20
2023-04-23T14:42:01.204Z,6.95
2023-04-23T14:44:28.237Z,7.55
2023-04-23T14:46:55.191Z,7.47
2023-04-23T14:49:21.878Z,7.90
2023-04-23T14:51:54.285Z,11.60
2023-04-23T14:54:22.260Z,9.65
2023-04-23T14:56:50.114Z,9.63
2023-04-23T14:59:17.159Z,8.73
2023-04-23T15:01:49.482Z,9.13
2023-04-23T15:04:22.526Z,8.40
2023-04-23T15:06:49.634Z,8.93
2023-04-23T15:09:17.216Z,8.35
2023-04-23T15:11:44.023Z,8.65
2023-04-23T15:14:33.417Z,9.32
2023-04-23T15:17:00.300Z,10.32
2023-04-23T15:19:27.222Z,10.30
2023-04-23T15:21:54.032Z,11.13
2023-04-23T15:24:20.904Z,9.40
2023-04-23T15:26:48.788Z,89.57
2023-04-23T15:29:15.717Z,26.92
2023-04-23T15:31:49.173Z,17.63
2023-04-23T15:34:16.077Z,15.65
2023-04-23T15:36:42.812Z,14.48
2023-04-23T15:39:09.707Z,15.18
2023-04-23T15:41:39.526Z,15.90
2023-04-23T15:44:13.419Z,10.68
2023-04-23T15:46:40.279Z,6.25
2023-04-23T15:49:07.053Z,4.63
2023-04-23T15:51:33.757Z,14.23
2023-04-23T15:54:02.285Z,16.13
2023-04-23T15:58:55.707Z,11.35
2023-04-23T16:01:23.682Z,15.57
2023-04-23T16:04:07.965Z,9.45
2023-04-23T16:06:36.690Z,18.90
2023-04-23T16:09:06.730Z,19.55
2023-04-23T16:11:34.514Z,18.48
2023-04-23T16:14:01.216Z,14.80
2023-04-23T16:16:28.650Z,22.67
2023-04-23T16:18:56.351Z,21.38
2023-04-23T16:21:24.542Z,12.43
2023-04-23T16:23:51.405Z,19.35
2023-04-23T16:26:18.067Z,19.98
2023-04-23T16:28:51.951Z,17.75
2023-04-23T16:31:23.334Z,19.88
2023-04-23T16:33:50.070Z,21.98
2023-04-23T16:36:17.360Z,15.10
2023-04-23T16:38:49.341Z,19.35
2023-04-23T16:41:17.729Z,17.85
2023-04-23T16:43:44.373Z,17.00
2023-04-23T16:46:11.195Z,15.77
2023-04-23T16:48:37.859Z,14.82
2023-04-23T16:51:04.545Z,16.00
2023-04-23T16:53:31.179Z,13.13
2023-04-23T16:55:58.032Z,15.23
2023-04-23T16:58:24.770Z,14.32
2023-04-23T17:00:51.491Z,15.05
2023-04-23T17:03:18.255Z,15.15
2023-04-23T17:05:45.746Z,14.88
2023-04-23T17:08:12.754Z,17.02
2023-04-23T17:10:39.631Z,11.35
2023-04-23T17:13:06.352Z,13.30
2023-04-23T17:15:32.976Z,13.05
2023-04-23T17:17:59.727Z,12.23
2023-04-23T17:20:26.523Z,20.25
2023-04-23T17:22:53.176Z,16.85
2023-04-23T17:25:19.894Z,15.63
2023-04-23T17:27:46.784Z,13.20
2023-04-23T17:30:13.717Z,13.23
2023-04-23T17:32:40.445Z,9.25
2023-04-23T17:35:10.683Z,10.85
2023-04-23T17:37:37.681Z,18.42
2023-04-23T17:40:06.000Z,11.80
2023-04-23T17:42:32.959Z,22.02
2023-04-23T17:44:59.788Z,18.50
2023-04-23T17:47:27.694Z,18.38
2023-04-23T17:49:54.676Z,22.85
2023-04-23T17:52:21.355Z,15.23
2023-04-23T17:54:48.046Z,10.73
2023-04-23T17:57:14.813Z,19.92
2023-04-23T17:59:41.781Z,15.23
2023-04-23T18:02:08.682Z,8.25
2023-04-23T18:04:36.715Z,8.25
2023-04-23T18:07:03.523Z,9.65
2023-04-23T18:09:30.279Z,13.32
2023-04-23T18:11:57.479Z,9.90
2023-04-23T18:14:24.202Z,10.60
2023-04-23T18:16:51.165Z,9.43
2023-04-23T18:19:17.862Z,10.85
2023-04-23T18:21:48.010Z,10.40
2023-04-23T18:24:15.220Z,10.20
2023-04-23T18:26:41.876Z,9.13
2023-04-23T18:29:08.567Z,8.95
2023-04-23T18:31:36.692Z,11.57
2023-04-23T18:34:03.893Z,12.35
2023-04-23T18:36:36.129Z,15.27
2023-04-23T18:39:03.823Z,14.68
2023-04-23T18:41:31.040Z,10.77
2023-04-23T18:44:00.020Z,18.23
2023-04-23T18:46:27.843Z,22.00
2023-04-23T18:49:01.072Z,32.20
2023-04-23T18:51:33.296Z,32.20
2023-04-23T18:54:01.774Z,27.42
2023-04-23T18:56:28.599Z,13.82
2023-04-23T18:58:55.486Z,9.63
2023-04-23T19:01:22.828Z,14.73
2023-04-23T19:03:49.684Z,13.38
2023-04-23T19:06:16.566Z,16.67
2023-04-23T19:08:43.187Z,17.50
2023-04-23T19:11:09.889Z,14.52
2023-04-23T19:13:36.659Z,11.70
2023-04-23T19:16:03.339Z,10.93
2023-04-23T19:18:30.035Z,14.32
2023-04-23T19:20:57.032Z,11.20
2023-04-23T19:23:23.693Z,14.63
2023-04-23T19:25:50.332Z,14.63
2023-04-23T19:28:16.967Z,13.77
2023-04-23T19:30:43.693Z,17.42
2023-04-23T19:33:10.509Z,13.45
2023-04-23T19:35:39.890Z,12.05
2023-04-23T19:38:07.047Z,12.63
2023-04-23T19:40:33.755Z,11.18
2023-04-23T19:43:00.444Z,9.23
2023-04-23T19:45:27.121Z,6.53
2023-04-23T19:47:53.879Z,7.93
2023-04-23T19:50:20.796Z,7.95
2023-04-23T19:52:47.544Z,10.63
2023-04-23T19:55:14.225Z,12.57
2023-04-23T19:57:40.899Z,14.30
2023-04-23T20:00:11.677Z,15.52
2023-04-23T20:02:38.441Z,12.10
2023-04-23T20:05:06.216Z,13.95
2023-04-23T20:07:33.061Z,9.30
2023-04-23T20:09:59.663Z,8.57
2023-04-23T20:12:26.348Z,12.00
2023-04-23T20:14:54.364Z,13.23
2023-04-23T20:17:20.985Z,8.90
2023-04-23T20:19:47.815Z,9.18
2023-04-23T20:22:14.433Z,9.10
2023-04-23T20:24:46.282Z,9.35
2023-04-23T20:27:13.230Z,8.88
2023-04-23T20:29:40.034Z,9.43
2023-04-23T20:32:06.829Z,9.70
2023-04-23T20:34:33.469Z,11.10
2023-04-23T20:37:00.261Z,10.35
2023-04-23T20:39:26.938Z,9.27
2023-04-23T20:41:54.994Z,12.00
2023-04-23T20:44:22.759Z,12.93
2023-04-23T20:46:52.901Z,11.60
2023-04-23T20:49:19.659Z,9.20
2023-04-23T20:51:48.969Z,9.15
2023-04-23T20:54:15.576Z,11.45
2023-04-23T20:56:42.534Z,14.95
2023-04-23T20:59:09.146Z,12.48
2023-04-23T21:01:35.867Z,19.55
2023-04-23T21:04:02.838Z,23.75
2023-04-23T21:06:31.309Z,18.02
2023-04-23T21:08:58.145Z,10.35
2023-04-23T21:11:25.000Z,11.38
2023-04-23T21:13:51.660Z,13.88
2023-04-23T21:16:18.402Z,11.27
2023-04-23T21:18:45.237Z,11.93
2023-04-23T21:21:11.926Z,18.58
2023-04-23T21:23:38.594Z,16.17
2023-04-23T21:26:05.398Z,13.50
2023-04-23T21:28:32.124Z,17.33
2023-04-23T21:31:01.621Z,22.25
2023-04-23T21:33:28.288Z,18.70
2023-04-23T21:35:54.951Z,20.17
2023-04-23T21:38:21.652Z,15.93
2023-04-23T21:40:48.357Z,18.88
2023-04-23T21:43:15.059Z,14.57
2023-04-23T21:45:41.749Z,13.20
2023-04-23T21:48:08.560Z,11.38
2023-04-23T21:50:36.132Z,11.32
2023-04-23T21:53:03.177Z,11.18
2023-04-23T21:55:31.559Z,19.00
2023-04-23T21:58:09.752Z,16.60
2023-04-23T22:00:44.568Z,11.73
2023-04-23T22:03:12.006Z,9.98
2023-04-23T22:05:39.993Z,17.48
2023-04-23T22:08:09.710Z,12.82
2023-04-23T22:10:42.782Z,8.77
2023-04-23T22:13:09.890Z,7.25
2023-04-23T22:15:36.933Z,8.70
2023-04-23T22:18:03.673Z,6.75
2023-04-23T22:20:30.778Z,7.53
2023-04-23T22:22:57.454Z,9.18
2023-04-23T22:25:24.138Z,7.60
2023-04-23T22:27:51.020Z,8.40
2023-04-23T22:30:17.733Z,9.52
2023-04-23T22:32:44.542Z,8.98
2023-04-23T22:35:11.515Z,10.25
2023-04-23T22:37:38.231Z,8.15
2023-04-23T22:40:05.555Z,7.57
2023-04-23T22:42:32.224Z,7.53
2023-04-23T22:44:58.861Z,8.65
2023-04-23T22:47:25.611Z,7.55
2023-04-23T22:49:52.354Z,7.28
2023-04-23T22:52:19.077Z,7.18
2023-04-23T22:54:46.545Z,7.82
2023-04-23T22:57:13.252Z,10.13
2023-04-23T22:59:40.351Z,10.00
2023-04-23T23:02:07.500Z,12.45
2023-04-23T23:04:37.828Z,12.32
2023-04-23T23:07:07.675Z,12.38
2023-04-23T23:09:34.359Z,12.05
2023-04-23T23:12:04.263Z,9.68
2023-04-23T23:14:31.759Z,9.60
2023-04-23T23:16:58.453Z,8.45
2023-04-23T23:19:26.968Z,9.07
2023-04-23T23:21:53.677Z,7.88
2023-04-23T23:24:20.504Z,7.90
2023-04-23T23:26:47.119Z,8.35
2023-04-23T23:29:13.769Z,7.78
2023-04-23T23:31:40.500Z,8.30
2023-04-23T23:34:07.230Z,7.95
2023-04-23T23:36:34.201Z,7.80
2023-04-23T23:39:00.893Z,8.77
2023-04-23T23:41:27.550Z,7.75
2023-04-23T23:43:54.301Z,9.30
2023-04-23T23:46:21.063Z,9.13
2023-04-23T23:48:47.783Z,10.60
2023-04-23T23:51:14.512Z,9.13
2023-04-23T23:53:41.165Z,7.03
2023-04-23T23:56:07.875Z,7.03
2023-04-23T23:58:34.473Z,6.68
